createdAt,value
2022-12-04T00:00:21.937Z,43.40
2022-12-04T00:02:52.112Z,53.77
2022-12-04T00:05:21.004Z,47.10
2022-12-04T00:07:50.030Z,43.57
2022-12-04T00:10:18.538Z,47.07
2022-12-04T00:12:48.066Z,38.93
2022-12-04T00:15:25.215Z,64.50
2022-12-04T00:17:56.353Z,50.93
2022-12-04T00:20:24.922Z,59.80
2022-12-04T00:22:54.413Z,44.67
2022-12-04T00:25:22.806Z,44.37
2022-12-04T00:27:51.690Z,76.53
2022-12-04T00:30:20.118Z,44.00
2022-12-04T00:32:49.098Z,42.87
2022-12-04T00:35:18.978Z,43.67
2022-12-04T00:37:47.588Z,68.57
2022-12-04T00:40:16.512Z,50.13
2022-12-04T00:42:45.741Z,46.70
2022-12-04T00:45:14.801Z,45.07
2022-12-04T00:47:43.784Z,46.13
2022-12-04T00:50:13.606Z,38.37
2022-12-04T00:52:43.633Z,48.13
2022-12-04T00:55:12.795Z,45.23
2022-12-04T00:57:42.274Z,56.67
2022-12-04T01:00:11.226Z,49.03
2022-12-04T01:02:40.299Z,48.33
2022-12-04T01:05:10.030Z,101.63
2022-12-04T01:07:38.618Z,44.07
2022-12-04T01:10:14.723Z,44.07
2022-12-04T01:12:43.217Z,46.50
2022-12-04T01:15:12.810Z,58.57
2022-12-04T01:17:41.904Z,44.73
2022-12-04T01:20:13.369Z,52.80
2022-12-04T01:22:41.813Z,53.30
2022-12-04T01:25:12.461Z,51.43
2022-12-04T01:27:41.116Z,70.53
2022-12-04T01:30:11.113Z,47.33
2022-12-04T01:32:39.974Z,66.87
2022-12-04T01:35:09.192Z,66.83
2022-12-04T01:37:38.078Z,49.00
2022-12-04T01:40:07.998Z,45.83
2022-12-04T01:42:38.998Z,54.07
2022-12-04T01:45:41.743Z,93.97
2022-12-04T01:48:19.850Z,51.60
2022-12-04T01:50:50.432Z,63.70
2022-12-04T01:53:20.445Z,51.87
2022-12-04T01:55:49.604Z,49.87
2022-12-04T01:58:27.351Z,50.03
2022-12-04T02:01:03.674Z,64.50
2022-12-04T02:03:36.060Z,48.90
2022-12-04T02:06:05.577Z,62.77
2022-12-04T02:08:35.723Z,49.57
2022-12-04T02:11:14.925Z,60.70
2022-12-04T02:13:53.706Z,60.27
2022-12-04T02:16:30.353Z,48.03
2022-12-04T02:19:07.530Z,48.07
2022-12-04T02:21:39.620Z,52.17
2022-12-04T02:24:26.606Z,46.23
2022-12-04T02:27:00.943Z,55.57
2022-12-04T02:29:38.738Z,65.13
2022-12-04T02:32:16.209Z,93.73
2022-12-04T02:34:50.509Z,101.90
2022-12-04T02:37:25.698Z,84.10
2022-12-04T02:40:01.328Z,97.50
2022-12-04T02:42:38.055Z,53.40
2022-12-04T02:45:11.294Z,86.63
2022-12-04T02:47:42.339Z,49.03
2022-12-04T02:50:14.493Z,51.10
2022-12-04T02:52:48.767Z,51.37
2022-12-04T02:55:23.029Z,43.57
2022-12-04T02:57:57.044Z,87.27
2022-12-04T03:00:29.568Z,85.17
2022-12-04T03:03:01.862Z,53.40
2022-12-04T03:05:39.625Z,92.40
2022-12-04T03:08:13.255Z,44.47
2022-12-04T03:10:47.645Z,78.27
2022-12-04T03:13:20.366Z,67.83
2022-12-04T03:15:55.115Z,83.43
2022-12-04T03:18:28.144Z,53.00
2022-12-04T03:21:03.973Z,48.63
2022-12-04T03:23:36.710Z,51.67
2022-12-04T03:26:11.494Z,44.40
2022-12-04T03:28:52.849Z,49.33
2022-12-04T03:31:29.219Z,91.87
2022-12-04T03:34:02.789Z,51.73
2022-12-04T03:36:37.115Z,52.67
2022-12-04T03:39:14.403Z,84.33
2022-12-04T03:41:55.694Z,61.53
2022-12-04T03:44:29.278Z,77.93
2022-12-04T03:47:05.684Z,43.70
2022-12-04T03:49:43.916Z,40.97
2022-12-04T03:52:18.573Z,93.73
2022-12-04T03:54:52.495Z,42.53
2022-12-04T03:57:25.959Z,70.97
2022-12-04T04:00:02.685Z,67.33
2022-12-04T04:02:37.554Z,72.80
2022-12-04T04:05:11.981Z,41.87
2022-12-04T04:07:45.339Z,60.27
2022-12-04T04:10:17.309Z,103.97
2022-12-04T04:13:12.594Z,62.93
2022-12-04T04:16:14.528Z,38.77
2022-12-04T04:19:03.030Z,40.80
2022-12-04T04:21:54.804Z,43.60
2022-12-04T04:24:31.944Z,55.17
2022-12-04T04:27:00.867Z,97.57
2022-12-04T04:29:29.703Z,46.10
2022-12-04T04:32:04.775Z,78.73
2022-12-04T04:34:46.285Z,71.83
2022-12-04T04:37:23.514Z,42.07
2022-12-04T04:39:58.320Z,36.33
2022-12-04T04:42:31.573Z,37.13
2022-12-04T04:45:05.735Z,47.20
2022-12-04T04:47:40.610Z,94.37
2022-12-04T04:50:14.011Z,89.50
2022-12-04T04:52:45.957Z,43.13
2022-12-04T04:55:15.682Z,41.20
2022-12-04T04:57:45.510Z,41.97
2022-12-04T05:00:17.390Z,45.53
2022-12-04T05:02:48.567Z,67.80
2022-12-04T05:05:19.413Z,41.87
2022-12-04T05:07:47.867Z,45.70
2022-12-04T05:10:16.906Z,40.43
2022-12-04T05:12:46.454Z,58.90
2022-12-04T05:15:15.544Z,54.27
2022-12-04T05:17:44.249Z,41.40
2022-12-04T05:20:13.523Z,44.63
2022-12-04T05:22:43.346Z,47.80
2022-12-04T05:25:12.556Z,46.60
2022-12-04T05:27:41.167Z,54.33
2022-12-04T05:30:12.236Z,46.57
2022-12-04T05:32:40.774Z,57.30
2022-12-04T05:35:11.621Z,45.20
2022-12-04T05:37:41.930Z,42.60
2022-12-04T05:40:12.579Z,42.57
2022-12-04T05:42:41.031Z,53.37
2022-12-04T05:45:10.183Z,41.00
2022-12-04T05:47:40.340Z,51.60
2022-12-04T05:50:10.034Z,122.90
2022-12-04T05:52:38.931Z,40.33
2022-12-04T05:55:08.166Z,43.77
2022-12-04T05:57:38.649Z,51.47
2022-12-04T06:00:08.940Z,44.70
2022-12-04T06:02:40.205Z,41.73
2022-12-04T06:05:09.288Z,44.97
2022-12-04T06:07:37.765Z,45.23
2022-12-04T06:10:08.434Z,44.40
2022-12-04T06:12:38.226Z,39.27
2022-12-04T06:15:08.355Z,46.40
2022-12-04T06:17:36.780Z,41.90
2022-12-04T06:20:11.412Z,56.27
2022-12-04T06:22:40.955Z,57.57
2022-12-04T06:25:10.172Z,44.43
2022-12-04T06:27:40.587Z,44.20
2022-12-04T06:30:10.571Z,45.80
2022-12-04T06:32:38.947Z,66.13
2022-12-04T06:35:08.661Z,85.53
2022-12-04T06:37:37.058Z,39.63
2022-12-04T06:40:07.793Z,39.40
2022-12-04T06:42:36.137Z,112.73
2022-12-04T06:45:08.194Z,69.67
2022-12-04T06:47:37.079Z,115.03
2022-12-04T06:50:06.354Z,90.60
2022-12-04T06:52:35.037Z,56.93
2022-12-04T06:55:04.248Z,37.07
2022-12-04T06:57:32.547Z,46.90
2022-12-04T07:00:01.283Z,70.00
2022-12-04T07:02:31.012Z,55.80
2022-12-04T07:04:59.764Z,41.20
2022-12-04T07:07:28.117Z,31.63
2022-12-04T07:10:00.187Z,32.57
2022-12-04T07:12:28.717Z,29.67
2022-12-04T07:14:57.064Z,58.47
2022-12-04T07:17:25.927Z,62.03
2022-12-04T07:19:56.092Z,39.13
2022-12-04T07:22:24.899Z,108.60
2022-12-04T07:24:53.427Z,45.10
2022-12-04T07:27:21.989Z,86.37
2022-12-04T07:29:52.731Z,46.00
2022-12-04T07:32:21.382Z,55.20
2022-12-04T07:34:49.755Z,99.53
2022-12-04T07:37:19.461Z,42.23
2022-12-04T07:39:48.009Z,51.77
2022-12-04T07:42:22.526Z,48.23
2022-12-04T07:44:52.418Z,92.20
2022-12-04T07:47:21.403Z,67.27
2022-12-04T07:49:49.738Z,132.47
2022-12-04T07:52:19.970Z,50.50
2022-12-04T07:54:48.862Z,84.13
2022-12-04T07:57:17.652Z,66.57
2022-12-04T07:59:46.487Z,38.33
2022-12-04T08:02:14.978Z,62.77
2022-12-04T08:04:44.369Z,76.67
2022-12-04T08:07:12.818Z,60.27
2022-12-04T08:09:43.066Z,62.93
2022-12-04T08:12:11.597Z,59.80
2022-12-04T08:14:40.179Z,65.67
2022-12-04T08:17:08.619Z,36.87
2022-12-04T08:19:37.269Z,66.33
2022-12-04T08:22:05.606Z,40.53
2022-12-04T08:24:34.839Z,44.03
2022-12-04T08:27:04.553Z,34.60
2022-12-04T08:29:33.220Z,48.10
2022-12-04T08:32:02.165Z,38.03
2022-12-04T08:34:30.602Z,53.03
2022-12-04T08:36:59.413Z,57.77
2022-12-04T08:39:27.834Z,36.30
2022-12-04T08:41:57.331Z,31.73
2022-12-04T08:44:27.930Z,41.30
2022-12-04T08:46:56.278Z,43.87
2022-12-04T08:49:25.152Z,65.80
2022-12-04T08:51:53.543Z,48.23
2022-12-04T08:54:22.975Z,33.50
2022-12-04T08:56:51.803Z,32.53
2022-12-04T08:59:20.238Z,30.97
2022-12-04T09:01:52.791Z,41.30
2022-12-04T09:04:21.898Z,28.80
2022-12-04T09:06:50.333Z,27.73
2022-12-04T09:09:19.085Z,26.07
2022-12-04T09:11:47.541Z,40.87
2022-12-04T09:14:16.357Z,31.67
2022-12-04T09:16:44.962Z,35.20
2022-12-04T09:19:15.173Z,36.47
2022-12-04T09:21:43.828Z,32.47
2022-12-04T09:24:12.645Z,32.90
2022-12-04T09:26:41.031Z,63.00
2022-12-04T09:29:11.616Z,35.97
2022-12-04T09:31:40.620Z,31.07
2022-12-04T09:34:09.012Z,26.17
2022-12-04T09:36:39.974Z,28.87
2022-12-04T09:39:08.434Z,37.20
2022-12-04T09:42:05.273Z,40.60
2022-12-04T09:44:37.065Z,37.93
2022-12-04T09:47:11.484Z,33.93
2022-12-04T09:49:43.045Z,35.77
2022-12-04T09:52:25.471Z,43.13
2022-12-04T09:54:54.923Z,38.80
2022-12-04T09:57:30.153Z,29.60
2022-12-04T09:59:58.964Z,28.37
2022-12-04T10:02:37.855Z,30.83
2022-12-04T10:05:08.446Z,32.37
2022-12-04T10:07:49.303Z,37.53
2022-12-04T10:10:24.898Z,30.37
2022-12-04T10:13:03.298Z,41.80
2022-12-04T10:15:40.118Z,24.53
2022-12-04T10:18:25.385Z,28.80
2022-12-04T10:21:07.558Z,37.87
2022-12-04T10:23:51.226Z,35.47
2022-12-04T10:26:25.009Z,35.50
2022-12-04T10:28:59.591Z,31.90
2022-12-04T10:31:29.572Z,29.77
2022-12-04T10:34:03.760Z,27.77
2022-12-04T10:36:34.485Z,26.03
2022-12-04T10:39:11.726Z,30.37
2022-12-04T10:41:47.722Z,25.67
2022-12-04T10:44:18.812Z,28.37
2022-12-04T10:46:47.445Z,28.37
2022-12-04T10:49:21.507Z,23.33
2022-12-04T10:51:50.933Z,23.07
2022-12-04T10:54:26.139Z,26.00
2022-12-04T10:56:56.869Z,27.30
2022-12-04T10:59:25.492Z,24.73
2022-12-04T11:02:06.288Z,25.30
2022-12-04T11:04:36.291Z,23.00
2022-12-04T11:07:09.033Z,24.50
2022-12-04T11:09:38.896Z,23.70
2022-12-04T11:12:11.040Z,20.30
2022-12-04T11:14:44.052Z,19.93
2022-12-04T11:17:19.115Z,22.20
2022-12-04T11:19:47.706Z,21.30
2022-12-04T11:22:18.791Z,21.87
2022-12-04T11:24:55.848Z,19.40
2022-12-04T11:27:27.610Z,17.97
2022-12-04T11:29:57.440Z,18.93
2022-12-04T11:32:29.365Z,17.60
2022-12-04T11:35:02.284Z,18.17
2022-12-04T11:37:36.474Z,17.90
2022-12-04T11:40:18.141Z,19.90
2022-12-04T11:42:59.071Z,17.37
2022-12-04T11:45:28.225Z,16.73
2022-12-04T11:47:58.613Z,16.60
2022-12-04T11:50:35.151Z,19.60
2022-12-04T11:53:11.833Z,16.30
2022-12-04T11:55:53.883Z,16.37
2022-12-04T11:58:42.905Z,18.20
2022-12-04T12:01:27.266Z,17.37
2022-12-04T12:04:25.124Z,20.43
2022-12-04T12:07:02.902Z,20.43
2022-12-04T12:09:42.667Z,21.57
2022-12-04T12:12:18.452Z,20.03
2022-12-04T12:15:06.228Z,19.07
2022-12-04T12:17:41.788Z,15.97
2022-12-04T12:20:18.912Z,17.37
2022-12-04T12:23:03.189Z,14.43
2022-12-04T12:25:39.207Z,16.67
2022-12-04T12:28:23.714Z,16.83
2022-12-04T12:31:07.629Z,14.10
2022-12-04T12:33:41.210Z,15.20
2022-12-04T12:36:12.068Z,17.77
2022-12-04T12:38:45.018Z,16.53
2022-12-04T12:41:16.789Z,17.27
2022-12-04T12:43:51.042Z,15.07
2022-12-04T12:46:27.583Z,14.77
2022-12-04T12:49:04.140Z,13.70
2022-12-04T12:51:38.319Z,13.60
2022-12-04T12:54:16.644Z,13.17
2022-12-04T12:56:51.838Z,17.10
2022-12-04T12:59:26.554Z,15.20
2022-12-04T13:02:01.067Z,13.97
2022-12-04T13:04:38.748Z,16.20
2022-12-04T13:07:24.349Z,15.73
2022-12-04T13:10:01.990Z,14.07
2022-12-04T13:12:33.312Z,16.33
2022-12-04T13:15:03.241Z,18.60
2022-12-04T13:17:38.659Z,17.00
2022-12-04T13:20:16.137Z,18.27
2022-12-04T13:22:58.425Z,21.97
2022-12-04T13:25:36.577Z,18.80
2022-12-04T13:28:17.300Z,21.63
2022-12-04T13:30:57.828Z,22.73
2022-12-04T13:33:51.196Z,19.53
2022-12-04T13:36:32.979Z,23.17
2022-12-04T13:39:24.861Z,26.07
2022-12-04T13:41:59.845Z,31.90
2022-12-04T13:44:29.530Z,21.70
2022-12-04T13:47:02.459Z,21.07
2022-12-04T13:49:33.262Z,21.00
2022-12-04T13:52:03.599Z,21.17
2022-12-04T13:54:34.737Z,22.67
2022-12-04T13:57:28.245Z,21.80
2022-12-04T14:00:06.679Z,24.17
2022-12-04T14:02:52.203Z,22.60
2022-12-04T14:05:28.796Z,20.20
2022-12-04T14:08:07.478Z,20.37
2022-12-04T14:10:39.892Z,18.17
2022-12-04T14:13:19.889Z,18.93
2022-12-04T14:15:49.305Z,55.47
2022-12-04T14:18:28.458Z,29.43
2022-12-04T14:21:01.476Z,19.60
2022-12-04T14:23:37.472Z,39.77
2022-12-04T14:26:07.006Z,51.67
2022-12-04T14:28:42.874Z,28.60
2022-12-04T14:31:21.121Z,19.07
2022-12-04T14:33:53.905Z,17.90
2022-12-04T14:36:26.885Z,16.93
2022-12-04T14:39:06.779Z,21.87
2022-12-04T14:41:35.393Z,23.40
2022-12-04T14:44:04.432Z,27.67
2022-12-04T14:46:41.266Z,24.40
2022-12-04T14:49:26.977Z,18.17
2022-12-04T14:52:02.683Z,17.73
2022-12-04T14:54:39.451Z,20.47
2022-12-04T14:57:28.230Z,19.17
2022-12-04T14:59:57.560Z,19.80
2022-12-04T15:02:34.994Z,26.63
2022-12-04T15:05:09.702Z,21.33
2022-12-04T15:07:46.159Z,23.47
2022-12-04T15:10:38.482Z,26.07
2022-12-04T15:13:06.902Z,25.83
2022-12-04T15:15:36.529Z,22.07
2022-12-04T15:18:12.558Z,25.20
2022-12-04T15:20:53.622Z,22.87
2022-12-04T15:23:30.328Z,24.27
2022-12-04T15:26:03.269Z,30.37
2022-12-04T15:28:35.896Z,45.37
2022-12-04T15:31:07.621Z,34.17
2022-12-04T15:33:39.355Z,23.53
2022-12-04T15:36:14.713Z,22.57
2022-12-04T15:38:43.681Z,23.03
2022-12-04T15:41:32.131Z,21.33
2022-12-04T15:44:01.386Z,22.57
2022-12-04T15:46:34.817Z,21.73
2022-12-04T15:49:08.454Z,20.17
2022-12-04T15:51:38.731Z,17.97
2022-12-04T15:54:14.792Z,19.73
2022-12-04T15:56:43.603Z,21.17
2022-12-04T15:59:18.185Z,22.57
2022-12-04T16:01:47.840Z,20.40
2022-12-04T16:04:24.276Z,17.73
2022-12-04T16:06:55.056Z,19.07
2022-12-04T16:09:25.517Z,15.70
2022-12-04T16:12:05.444Z,26.03
2022-12-04T16:14:33.831Z,24.07
2022-12-04T16:17:06.279Z,29.23
2022-12-04T16:19:37.240Z,25.60
2022-12-04T16:22:13.873Z,21.27
2022-12-04T16:24:42.498Z,22.07
2022-12-04T16:27:13.613Z,26.37
2022-12-04T16:29:42.013Z,21.17
2022-12-04T16:32:12.587Z,20.37
2022-12-04T16:34:41.578Z,20.07
2022-12-04T16:37:14.811Z,20.80
2022-12-04T16:39:44.101Z,22.27
2022-12-04T16:42:17.216Z,19.03
2022-12-04T16:44:47.352Z,19.50
2022-12-04T16:47:16.555Z,17.87
2022-12-04T16:49:46.322Z,20.57
2022-12-04T16:52:17.488Z,22.00
2022-12-04T16:54:46.978Z,24.67
2022-12-04T16:57:15.611Z,24.93
2022-12-04T16:59:44.455Z,22.77
2022-12-04T17:02:17.712Z,29.00
2022-12-04T17:04:46.500Z,24.00
2022-12-04T17:07:16.630Z,27.23
2022-12-04T17:09:45.018Z,26.30
2022-12-04T17:12:13.387Z,25.70
2022-12-04T17:14:42.109Z,26.60
2022-12-04T17:17:10.518Z,28.67
2022-12-04T17:19:38.878Z,38.10
2022-12-04T17:22:08.225Z,37.27
2022-12-04T17:24:43.644Z,35.03
2022-12-04T17:27:16.568Z,30.00
2022-12-04T17:29:45.861Z,30.87
2022-12-04T17:32:14.873Z,34.70
2022-12-04T17:34:43.282Z,35.30
2022-12-04T17:37:12.199Z,32.27
2022-12-04T17:39:41.904Z,30.30
2022-12-04T17:42:10.922Z,31.80
2022-12-04T17:44:39.278Z,34.67
2022-12-04T17:47:07.781Z,39.77
2022-12-04T17:49:36.903Z,39.00
2022-12-04T17:52:05.731Z,39.10
2022-12-04T17:54:34.968Z,40.83
2022-12-04T17:57:04.803Z,37.40
2022-12-04T17:59:34.016Z,37.50
2022-12-04T18:02:02.359Z,42.53
2022-12-04T18:04:31.155Z,48.83
2022-12-04T18:06:59.501Z,45.10
2022-12-04T18:09:28.462Z,44.10
2022-12-04T18:11:58.496Z,44.97
2022-12-04T18:14:29.792Z,50.50
2022-12-04T18:16:59.070Z,45.57
2022-12-04T18:19:31.021Z,46.40
2022-12-04T18:22:00.349Z,46.03
2022-12-04T18:24:29.175Z,45.97
2022-12-04T18:26:58.029Z,47.90
2022-12-04T18:29:28.306Z,51.20
2022-12-04T18:31:57.932Z,50.53
2022-12-04T18:34:26.552Z,49.50
2022-12-04T18:36:54.897Z,50.83
2022-12-04T18:39:26.089Z,48.73
2022-12-04T18:41:56.057Z,48.27
2022-12-04T18:44:26.268Z,49.80
2022-12-04T18:46:57.626Z,53.53
2022-12-04T18:49:26.018Z,44.87
2022-12-04T18:51:54.902Z,48.73
2022-12-04T18:54:25.063Z,54.80
2022-12-04T18:56:53.712Z,48.77
2022-12-04T18:59:24.251Z,53.33
2022-12-04T19:01:54.204Z,53.60
2022-12-04T19:04:25.748Z,61.23
2022-12-04T19:06:55.893Z,50.43
2022-12-04T19:12:16.220Z,49.97
2022-12-04T19:14:45.506Z,58.37
2022-12-04T19:17:14.401Z,52.47
2022-12-04T19:19:44.152Z,67.67
2022-12-04T19:22:13.550Z,50.67
2022-12-04T19:24:42.895Z,51.13
2022-12-04T19:27:12.091Z,55.00
2022-12-04T19:29:41.817Z,54.50
2022-12-04T19:32:12.009Z,55.03
2022-12-04T19:34:40.381Z,52.90
2022-12-04T19:37:11.293Z,56.80
2022-12-04T19:39:39.883Z,56.70
2022-12-04T19:42:08.550Z,51.80
2022-12-04T19:44:48.518Z,61.43
2022-12-04T19:47:19.588Z,60.00
2022-12-04T19:49:48.643Z,56.27
2022-12-04T19:52:18.716Z,63.77
2022-12-04T19:54:47.531Z,63.60
2022-12-04T19:57:16.001Z,59.43
2022-12-04T19:59:46.775Z,76.17
2022-12-04T20:02:16.485Z,57.33
2022-12-04T20:04:44.971Z,57.93
2022-12-04T20:07:13.367Z,55.40
2022-12-04T20:09:47.368Z,49.17
2022-12-04T20:12:19.344Z,61.57
2022-12-04T20:14:47.718Z,56.33
2022-12-04T20:17:16.490Z,61.00
2022-12-04T20:19:44.870Z,48.83
2022-12-04T20:22:13.309Z,50.10
2022-12-04T20:24:43.118Z,48.47
2022-12-04T20:27:11.463Z,52.27
2022-12-04T20:29:39.871Z,56.40
2022-12-04T20:32:08.319Z,47.90
2022-12-04T20:34:43.313Z,50.97
2022-12-04T20:37:12.166Z,73.23
2022-12-04T20:39:41.358Z,49.67
2022-12-04T20:42:11.377Z,49.17
2022-12-04T20:44:39.769Z,49.23
2022-12-04T20:47:08.152Z,50.70
2022-12-04T20:49:36.514Z,51.17
2022-12-04T20:52:05.379Z,53.90
2022-12-04T20:54:40.776Z,51.53
2022-12-04T20:57:11.725Z,47.30
2022-12-04T20:59:40.330Z,50.43
2022-12-04T21:02:08.744Z,58.63
2022-12-04T21:04:38.905Z,54.63
2022-12-04T21:07:08.030Z,48.37
2022-12-04T21:09:36.498Z,49.77
2022-12-04T21:12:26.709Z,46.60
2022-12-04T21:15:19.964Z,43.90
2022-12-04T21:17:48.330Z,41.83
2022-12-04T21:20:17.381Z,44.70
2022-12-04T21:22:46.635Z,45.60
2022-12-04T21:25:14.959Z,43.43
2022-12-04T21:27:43.898Z,42.33
2022-12-04T21:30:14.907Z,41.03
2022-12-04T21:32:43.574Z,42.17
2022-12-04T21:35:11.897Z,35.80
2022-12-04T21:37:40.844Z,36.23
2022-12-04T21:40:10.819Z,40.27
2022-12-04T21:42:39.377Z,39.90
2022-12-04T21:45:08.888Z,44.23
2022-12-04T21:47:39.014Z,36.87
2022-12-04T21:50:08.875Z,40.20
2022-12-04T21:52:37.222Z,35.33
2022-12-04T21:55:06.368Z,42.43
2022-12-04T21:57:34.889Z,40.87
2022-12-04T22:00:04.076Z,37.47
2022-12-04T22:02:34.940Z,37.47
2022-12-04T22:05:06.017Z,36.73
2022-12-04T22:07:34.664Z,36.03
2022-12-04T22:10:10.196Z,37.67
2022-12-04T22:12:49.433Z,35.60
2022-12-04T22:15:18.901Z,34.90
2022-12-04T22:17:47.788Z,37.83
2022-12-04T22:20:17.997Z,35.33
2022-12-04T22:22:46.958Z,41.97
2022-12-04T22:25:15.503Z,33.67
2022-12-04T22:27:43.978Z,37.10
2022-12-04T22:30:13.748Z,32.50
2022-12-04T22:32:42.202Z,37.33
2022-12-04T22:35:11.430Z,34.37
2022-12-04T22:37:44.584Z,35.47
2022-12-04T22:40:15.677Z,39.27
2022-12-04T22:42:44.513Z,40.03
2022-12-04T22:45:14.139Z,37.77
2022-12-04T22:47:42.678Z,35.10
2022-12-04T22:50:12.472Z,37.03
2022-12-04T22:52:42.157Z,34.10
2022-12-04T22:55:11.301Z,34.97
2022-12-04T22:57:40.210Z,33.90
2022-12-04T23:00:10.289Z,37.47
2022-12-04T23:02:39.527Z,37.10
2022-12-04T23:05:08.397Z,41.27
2022-12-04T23:07:37.932Z,37.60
2022-12-04T23:10:09.355Z,38.83
2022-12-04T23:12:38.206Z,43.83
2022-12-04T23:15:08.037Z,34.73
2022-12-04T23:17:36.561Z,36.90
2022-12-04T23:20:05.708Z,37.07
2022-12-04T23:22:34.128Z,34.07
2022-12-04T23:25:03.661Z,40.57
2022-12-04T23:27:33.702Z,34.63
2022-12-04T23:30:02.583Z,36.10
2022-12-04T23:32:31.352Z,52.43
2022-12-04T23:34:59.892Z,72.70
2022-12-04T23:37:28.247Z,34.00
2022-12-04T23:39:56.951Z,42.10
2022-12-04T23:42:25.531Z,33.97
2022-12-04T23:44:55.286Z,37.17
2022-12-04T23:47:24.120Z,34.47
2022-12-04T23:49:52.446Z,35.03
2022-12-04T23:52:21.319Z,32.23
2022-12-04T23:54:49.657Z,33.40
2022-12-04T23:57:18.539Z,34.90
2022-12-04T23:59:47.482Z,34.93
